< < Back
Terminal Aerodrome Forecast


Current Version              Previous Versions:   1  2  3  4  5  6  7  8  9  

Terminal Aerodrome Forecast

902
FTUS44 KBMX 281725
TAFTCL
TAF
KTCL 281725Z 2818/2918 15007KT P6SM SCT050
     FM282200 15007KT P6SM VCSH BKN060
     FM290100 00000KT P6SM SCT250=

Latest METAR

815
SAUS70 KWBC 291056
MTRTCL
METAR KTCL 291053Z AUTO 04003KT 8SM CLR 21/19 A3009 RMK AO2 SLP185
T02060194


USA.gov is the U.S. government's official web portal to all federal, state and local government web resources and services.